sensor_id;sensor_type;location;lat;lon;timestamp;P1;durP1;ratioP1;P2;durP2;ratioP2
73893;SDS011;62699;50.534;12.784;2023-06-10T00:01:24;9.73;;;7.18;;
73893;SDS011;62699;50.534;12.784;2023-06-10T00:06:24;11.48;;;8.00;;
73893;SDS011;62699;50.534;12.784;2023-06-10T00:11:24;12.07;;;7.18;;
73893;SDS011;62699;50.534;12.784;2023-06-10T00:16:25;10.25;;;6.88;;
73893;SDS011;62699;50.534;12.784;2023-06-10T00:21:29;11.07;;;7.28;;
73893;SDS011;62699;50.534;12.784;2023-06-10T00:26:40;14.23;;;7.88;;
73893;SDS011;62699;50.534;12.784;2023-06-10T00:31:42;12.68;;;7.95;;
73893;SDS011;62699;50.534;12.784;2023-06-10T00:36:42;11.18;;;8.23;;
73893;SDS011;62699;50.534;12.784;2023-06-10T00:41:43;12.35;;;7.70;;
73893;SDS011;62699;50.534;12.784;2023-06-10T00:46:43;13.88;;;7.22;;
73893;SDS011;62699;50.534;12.784;2023-06-10T00:51:44;10.13;;;6.63;;
73893;SDS011;62699;50.534;12.784;2023-06-10T00:56:47;12.15;;;7.20;;
73893;SDS011;62699;50.534;12.784;2023-06-10T01:01:48;12.75;;;8.27;;
73893;SDS011;62699;50.534;12.784;2023-06-10T01:12:24;11.23;;;7.32;;
73893;SDS011;62699;50.534;12.784;2023-06-10T01:17:33;12.55;;;7.80;;
73893;SDS011;62699;50.534;12.784;2023-06-10T01:22:33;12.32;;;8.18;;
73893;SDS011;62699;50.534;12.784;2023-06-10T01:27:36;12.60;;;8.02;;
73893;SDS011;62699;50.534;12.784;2023-06-10T01:32:45;11.43;;;7.45;;
73893;SDS011;62699;50.534;12.784;2023-06-10T01:37:49;11.83;;;7.87;;
73893;SDS011;62699;50.534;12.784;2023-06-10T01:42:53;12.00;;;7.75;;
73893;SDS011;62699;50.534;12.784;2023-06-10T01:48:03;13.20;;;7.95;;
73893;SDS011;62699;50.534;12.784;2023-06-10T01:53:04;12.07;;;7.78;;
73893;SDS011;62699;50.534;12.784;2023-06-10T01:58:07;10.95;;;7.72;;
73893;SDS011;62699;50.534;12.784;2023-06-10T02:03:08;12.45;;;8.13;;
73893;SDS011;62699;50.534;12.784;2023-06-10T02:08:08;11.73;;;8.30;;
73893;SDS011;62699;50.534;12.784;2023-06-10T02:13:09;12.13;;;8.07;;
73893;SDS011;62699;50.534;12.784;2023-06-10T02:18:10;12.38;;;8.02;;
73893;SDS011;62699;50.534;12.784;2023-06-10T02:23:12;12.60;;;8.00;;
73893;SDS011;62699;50.534;12.784;2023-06-10T02:28:12;13.50;;;8.18;;
73893;SDS011;62699;50.534;12.784;2023-06-10T02:33:12;12.15;;;8.20;;
73893;SDS011;62699;50.534;12.784;2023-06-10T02:38:13;11.98;;;7.82;;
73893;SDS011;62699;50.534;12.784;2023-06-10T02:43:14;12.45;;;7.97;;
73893;SDS011;62699;50.534;12.784;2023-06-10T02:48:14;13.68;;;7.75;;
73893;SDS011;62699;50.534;12.784;2023-06-10T02:53:18;12.73;;;8.98;;
73893;SDS011;62699;50.534;12.784;2023-06-10T02:58:19;11.43;;;7.70;;
73893;SDS011;62699;50.534;12.784;2023-06-10T03:03:21;11.85;;;8.63;;
73893;SDS011;62699;50.534;12.784;2023-06-10T03:08:22;11.75;;;8.18;;
73893;SDS011;62699;50.534;12.784;2023-06-10T03:13:23;11.68;;;8.20;;
73893;SDS011;62699;50.534;12.784;2023-06-10T03:18:27;12.20;;;8.07;;
73893;SDS011;62699;50.534;12.784;2023-06-10T03:23:28;10.18;;;7.22;;
73893;SDS011;62699;50.534;12.784;2023-06-10T03:28:29;11.88;;;8.38;;
73893;SDS011;62699;50.534;12.784;2023-06-10T03:33:29;11.60;;;8.05;;
73893;SDS011;62699;50.534;12.784;2023-06-10T03:38:30;11.68;;;8.23;;
73893;SDS011;62699;50.534;12.784;2023-06-10T03:43:30;11.15;;;7.53;;
73893;SDS011;62699;50.534;12.784;2023-06-10T03:48:31;12.07;;;7.93;;
73893;SDS011;62699;50.534;12.784;2023-06-10T03:53:31;11.50;;;7.93;;
73893;SDS011;62699;50.534;12.784;2023-06-10T03:58:31;13.07;;;8.48;;
73893;SDS011;62699;50.534;12.784;2023-06-10T04:03:32;11.10;;;7.80;;
73893;SDS011;62699;50.534;12.784;2023-06-10T04:08:33;11.77;;;7.40;;
73893;SDS011;62699;50.534;12.784;2023-06-10T04:13:33;10.55;;;7.25;;
73893;SDS011;62699;50.534;12.784;2023-06-10T04:18:34;11.05;;;7.40;;
73893;SDS011;62699;50.534;12.784;2023-06-10T04:23:36;9.88;;;6.93;;
73893;SDS011;62699;50.534;12.784;2023-06-10T04:28:40;10.25;;;6.32;;
73893;SDS011;62699;50.534;12.784;2023-06-10T04:33:43;11.25;;;6.03;;
73893;SDS011;62699;50.534;12.784;2023-06-10T04:38:43;8.63;;;5.45;;
73893;SDS011;62699;50.534;12.784;2023-06-10T04:43:43;8.35;;;5.25;;
73893;SDS011;62699;50.534;12.784;2023-06-10T04:48:43;8.02;;;5.70;;
73893;SDS011;62699;50.534;12.784;2023-06-10T04:53:44;8.82;;;5.18;;
73893;SDS011;62699;50.534;12.784;2023-06-10T04:58:45;7.00;;;4.75;;
73893;SDS011;62699;50.534;12.784;2023-06-10T05:03:45;7.18;;;4.97;;
73893;SDS011;62699;50.534;12.784;2023-06-10T05:08:45;7.45;;;4.68;;
73893;SDS011;62699;50.534;12.784;2023-06-10T05:13:46;7.97;;;4.60;;
73893;SDS011;62699;50.534;12.784;2023-06-10T05:18:46;7.55;;;4.55;;
73893;SDS011;62699;50.534;12.784;2023-06-10T05:23:46;8.30;;;4.75;;
73893;SDS011;62699;50.534;12.784;2023-06-10T05:28:47;9.88;;;4.63;;
73893;SDS011;62699;50.534;12.784;2023-06-10T05:33:47;6.72;;;4.13;;
73893;SDS011;62699;50.534;12.784;2023-06-10T05:38:48;7.18;;;4.60;;
73893;SDS011;62699;50.534;12.784;2023-06-10T05:43:48;7.60;;;4.70;;
73893;SDS011;62699;50.534;12.784;2023-06-10T05:48:49;7.50;;;4.90;;
73893;SDS011;62699;50.534;12.784;2023-06-10T05:53:49;7.40;;;4.23;;
73893;SDS011;62699;50.534;12.784;2023-06-10T05:58:50;7.03;;;4.30;;
73893;SDS011;62699;50.534;12.784;2023-06-10T06:03:51;6.53;;;4.38;;
73893;SDS011;62699;50.534;12.784;2023-06-10T06:08:51;6.07;;;4.32;;
73893;SDS011;62699;50.534;12.784;2023-06-10T06:13:51;6.40;;;4.13;;
73893;SDS011;62699;50.534;12.784;2023-06-10T06:18:53;6.03;;;4.03;;
73893;SDS011;62699;50.534;12.784;2023-06-10T06:23:53;6.47;;;4.30;;
73893;SDS011;62699;50.534;12.784;2023-06-10T06:28:53;8.63;;;4.00;;
73893;SDS011;62699;50.534;12.784;2023-06-10T06:33:54;6.22;;;4.00;;
73893;SDS011;62699;50.534;12.784;2023-06-10T06:38:54;5.87;;;3.80;;
73893;SDS011;62699;50.534;12.784;2023-06-10T06:43:54;6.88;;;3.78;;
73893;SDS011;62699;50.534;12.784;2023-06-10T06:48:55;6.70;;;3.42;;
73893;SDS011;62699;50.534;12.784;2023-06-10T06:53:55;4.53;;;3.05;;
73893;SDS011;62699;50.534;12.784;2023-06-10T06:58:58;6.05;;;3.53;;
73893;SDS011;62699;50.534;12.784;2023-06-10T07:03:58;6.20;;;3.40;;
73893;SDS011;62699;50.534;12.784;2023-06-10T07:08:59;6.50;;;3.40;;
73893;SDS011;62699;50.534;12.784;2023-06-10T07:13:59;5.70;;;3.17;;
73893;SDS011;62699;50.534;12.784;2023-06-10T07:18:59;4.75;;;3.30;;
73893;SDS011;62699;50.534;12.784;2023-06-10T07:23:59;6.63;;;3.05;;
73893;SDS011;62699;50.534;12.784;2023-06-10T07:29:00;6.28;;;3.40;;
73893;SDS011;62699;50.534;12.784;2023-06-10T07:34:00;6.20;;;3.23;;
73893;SDS011;62699;50.534;12.784;2023-06-10T07:39:00;5.50;;;3.13;;
73893;SDS011;62699;50.534;12.784;2023-06-10T07:44:01;6.70;;;3.77;;
73893;SDS011;62699;50.534;12.784;2023-06-10T07:49:02;7.85;;;4.07;;
73893;SDS011;62699;50.534;12.784;2023-06-10T07:54:03;8.23;;;3.80;;
73893;SDS011;62699;50.534;12.784;2023-06-10T07:59:03;6.55;;;3.75;;
73893;SDS011;62699;50.534;12.784;2023-06-10T08:04:04;6.80;;;4.10;;
73893;SDS011;62699;50.534;12.784;2023-06-10T08:09:04;6.93;;;4.25;;
73893;SDS011;62699;50.534;12.784;2023-06-10T08:14:05;7.72;;;4.50;;
73893;SDS011;62699;50.534;12.784;2023-06-10T08:19:05;7.50;;;4.63;;
73893;SDS011;62699;50.534;12.784;2023-06-10T08:24:06;9.48;;;4.50;;
73893;SDS011;62699;50.534;12.784;2023-06-10T08:29:06;9.15;;;4.97;;
73893;SDS011;62699;50.534;12.784;2023-06-10T08:34:07;9.60;;;4.90;;
73893;SDS011;62699;50.534;12.784;2023-06-10T08:39:07;8.45;;;5.07;;
73893;SDS011;62699;50.534;12.784;2023-06-10T08:44:17;10.00;;;5.60;;
73893;SDS011;62699;50.534;12.784;2023-06-10T08:49:30;8.90;;;5.72;;
73893;SDS011;62699;50.534;12.784;2023-06-10T08:54:33;11.25;;;5.78;;
73893;SDS011;62699;50.534;12.784;2023-06-10T08:59:37;9.50;;;5.78;;
73893;SDS011;62699;50.534;12.784;2023-06-10T09:04:38;9.10;;;6.18;;
73893;SDS011;62699;50.534;12.784;2023-06-10T09:09:39;8.52;;;5.88;;
73893;SDS011;62699;50.534;12.784;2023-06-10T09:14:43;8.35;;;5.75;;
73893;SDS011;62699;50.534;12.784;2023-06-10T09:19:45;11.60;;;6.70;;
73893;SDS011;62699;50.534;12.784;2023-06-10T09:24:46;13.40;;;8.00;;
73893;SDS011;62699;50.534;12.784;2023-06-10T09:29:47;12.18;;;9.00;;
73893;SDS011;62699;50.534;12.784;2023-06-10T09:34:52;10.82;;;7.72;;
73893;SDS011;62699;50.534;12.784;2023-06-10T09:40:03;11.82;;;8.82;;
73893;SDS011;62699;50.534;12.784;2023-06-10T09:45:08;11.82;;;8.65;;
73893;SDS011;62699;50.534;12.784;2023-06-10T09:50:11;11.80;;;8.50;;
73893;SDS011;62699;50.534;12.784;2023-06-10T09:55:12;11.75;;;6.93;;
73893;SDS011;62699;50.534;12.784;2023-06-10T10:00:14;11.07;;;8.00;;
73893;SDS011;62699;50.534;12.784;2023-06-10T10:05:15;12.35;;;7.07;;
73893;SDS011;62699;50.534;12.784;2023-06-10T10:10:20;12.90;;;7.13;;
73893;SDS011;62699;50.534;12.784;2023-06-10T10:15:21;11.95;;;5.97;;
73893;SDS011;62699;50.534;12.784;2023-06-10T10:20:29;11.45;;;6.03;;
73893;SDS011;62699;50.534;12.784;2023-06-10T10:25:34;9.43;;;6.15;;
73893;SDS011;62699;50.534;12.784;2023-06-10T10:30:40;10.40;;;6.22;;
73893;SDS011;62699;50.534;12.784;2023-06-10T10:35:43;8.93;;;5.70;;
73893;SDS011;62699;50.534;12.784;2023-06-10T10:40:43;9.35;;;6.57;;
73893;SDS011;62699;50.534;12.784;2023-06-10T10:45:45;11.75;;;7.28;;
73893;SDS011;62699;50.534;12.784;2023-06-10T10:50:57;17.15;;;7.60;;
73893;SDS011;62699;50.534;12.784;2023-06-10T10:56:07;14.18;;;8.63;;
73893;SDS011;62699;50.534;12.784;2023-06-10T11:01:14;12.05;;;7.40;;
73893;SDS011;62699;50.534;12.784;2023-06-10T11:06:15;11.27;;;7.82;;
73893;SDS011;62699;50.534;12.784;2023-06-10T11:11:19;11.13;;;8.30;;
73893;SDS011;62699;50.534;12.784;2023-06-10T11:16:21;11.93;;;7.55;;
73893;SDS011;62699;50.534;12.784;2023-06-10T11:21:26;12.30;;;7.90;;
73893;SDS011;62699;50.534;12.784;2023-06-10T11:31:28;13.40;;;8.98;;
73893;SDS011;62699;50.534;12.784;2023-06-10T11:36:30;11.18;;;7.63;;
73893;SDS011;62699;50.534;12.784;2023-06-10T11:41:33;9.35;;;6.07;;
73893;SDS011;62699;50.534;12.784;2023-06-10T11:46:34;9.95;;;4.90;;
73893;SDS011;62699;50.534;12.784;2023-06-10T11:51:36;8.00;;;5.00;;
73893;SDS011;62699;50.534;12.784;2023-06-10T11:56:41;8.40;;;5.57;;
73893;SDS011;62699;50.534;12.784;2023-06-10T12:01:42;11.73;;;5.32;;
73893;SDS011;62699;50.534;12.784;2023-06-10T12:06:45;9.48;;;4.85;;
73893;SDS011;62699;50.534;12.784;2023-06-10T12:11:51;7.40;;;4.80;;
73893;SDS011;62699;50.534;12.784;2023-06-10T12:16:56;8.38;;;4.68;;
73893;SDS011;62699;50.534;12.784;2023-06-10T12:21:56;7.95;;;4.78;;
73893;SDS011;62699;50.534;12.784;2023-06-10T12:26:56;7.10;;;3.90;;
73893;SDS011;62699;50.534;12.784;2023-06-10T12:32:01;7.40;;;3.90;;
73893;SDS011;62699;50.534;12.784;2023-06-10T12:37:03;8.57;;;4.68;;
73893;SDS011;62699;50.534;12.784;2023-06-10T12:42:08;6.05;;;3.78;;
73893;SDS011;62699;50.534;12.784;2023-06-10T12:47:10;7.70;;;4.55;;
73893;SDS011;62699;50.534;12.784;2023-06-10T12:52:12;8.48;;;4.20;;
73893;SDS011;62699;50.534;12.784;2023-06-10T12:57:12;6.78;;;4.35;;
73893;SDS011;62699;50.534;12.784;2023-06-10T13:02:13;7.65;;;4.43;;
73893;SDS011;62699;50.534;12.784;2023-06-10T13:07:15;7.80;;;4.07;;
73893;SDS011;62699;50.534;12.784;2023-06-10T13:12:18;7.40;;;4.00;;
73893;SDS011;62699;50.534;12.784;2023-06-10T13:17:18;7.15;;;4.53;;
73893;SDS011;62699;50.534;12.784;2023-06-10T13:22:18;7.20;;;3.88;;
73893;SDS011;62699;50.534;12.784;2023-06-10T13:27:20;6.68;;;4.18;;
73893;SDS011;62699;50.534;12.784;2023-06-10T13:32:20;7.38;;;4.05;;
73893;SDS011;62699;50.534;12.784;2023-06-10T13:37:21;7.07;;;4.50;;
73893;SDS011;62699;50.534;12.784;2023-06-10T13:42:23;9.63;;;4.20;;
73893;SDS011;62699;50.534;12.784;2023-06-10T13:47:26;7.00;;;4.00;;
73893;SDS011;62699;50.534;12.784;2023-06-10T13:52:26;6.88;;;3.92;;
73893;SDS011;62699;50.534;12.784;2023-06-10T13:57:26;6.80;;;3.80;;
73893;SDS011;62699;50.534;12.784;2023-06-10T14:02:27;8.23;;;4.78;;
73893;SDS011;62699;50.534;12.784;2023-06-10T14:07:27;8.38;;;4.55;;
73893;SDS011;62699;50.534;12.784;2023-06-10T14:12:29;7.10;;;4.63;;
73893;SDS011;62699;50.534;12.784;2023-06-10T14:17:29;8.65;;;5.00;;
73893;SDS011;62699;50.534;12.784;2023-06-10T14:22:29;9.82;;;4.53;;
73893;SDS011;62699;50.534;12.784;2023-06-10T14:27:30;9.50;;;4.43;;
73893;SDS011;62699;50.534;12.784;2023-06-10T14:32:30;7.88;;;4.70;;
73893;SDS011;62699;50.534;12.784;2023-06-10T14:37:31;7.82;;;4.93;;
73893;SDS011;62699;50.534;12.784;2023-06-10T14:42:31;8.95;;;4.32;;
73893;SDS011;62699;50.534;12.784;2023-06-10T14:47:32;6.95;;;4.20;;
73893;SDS011;62699;50.534;12.784;2023-06-10T14:52:32;9.48;;;4.75;;
73893;SDS011;62699;50.534;12.784;2023-06-10T14:57:32;6.75;;;4.00;;
73893;SDS011;62699;50.534;12.784;2023-06-10T15:02:34;11.15;;;4.57;;
73893;SDS011;62699;50.534;12.784;2023-06-10T15:07:34;10.07;;;4.88;;
73893;SDS011;62699;50.534;12.784;2023-06-10T15:12:35;8.93;;;4.80;;
73893;SDS011;62699;50.534;12.784;2023-06-10T15:17:35;8.57;;;4.63;;
73893;SDS011;62699;50.534;12.784;2023-06-10T15:22:36;7.63;;;4.38;;
73893;SDS011;62699;50.534;12.784;2023-06-10T15:27:37;8.98;;;4.32;;
73893;SDS011;62699;50.534;12.784;2023-06-10T15:32:37;7.35;;;4.65;;
73893;SDS011;62699;50.534;12.784;2023-06-10T15:37:37;8.02;;;5.10;;
73893;SDS011;62699;50.534;12.784;2023-06-10T15:42:37;7.53;;;4.93;;
73893;SDS011;62699;50.534;12.784;2023-06-10T15:47:39;11.68;;;5.05;;
73893;SDS011;62699;50.534;12.784;2023-06-10T15:52:41;8.43;;;4.88;;
73893;SDS011;62699;50.534;12.784;2023-06-10T15:57:42;7.97;;;5.38;;
73893;SDS011;62699;50.534;12.784;2023-06-10T16:02:42;8.73;;;6.22;;
73893;SDS011;62699;50.534;12.784;2023-06-10T16:07:43;11.07;;;5.50;;
73893;SDS011;62699;50.534;12.784;2023-06-10T16:12:43;8.77;;;5.97;;
73893;SDS011;62699;50.534;12.784;2023-06-10T16:17:43;7.97;;;4.77;;
73893;SDS011;62699;50.534;12.784;2023-06-10T16:22:43;8.20;;;5.03;;
73893;SDS011;62699;50.534;12.784;2023-06-10T16:27:44;7.72;;;5.25;;
73893;SDS011;62699;50.534;12.784;2023-06-10T16:32:45;9.85;;;5.78;;
73893;SDS011;62699;50.534;12.784;2023-06-10T16:37:45;11.43;;;6.10;;
73893;SDS011;62699;50.534;12.784;2023-06-10T16:42:45;8.77;;;4.68;;
73893;SDS011;62699;50.534;12.784;2023-06-10T16:47:47;10.10;;;4.72;;
73893;SDS011;62699;50.534;12.784;2023-06-10T16:52:47;8.63;;;4.80;;
73893;SDS011;62699;50.534;12.784;2023-06-10T16:57:47;9.50;;;4.78;;
73893;SDS011;62699;50.534;12.784;2023-06-10T17:02:47;9.43;;;4.70;;
73893;SDS011;62699;50.534;12.784;2023-06-10T17:07:49;8.88;;;4.88;;
73893;SDS011;62699;50.534;12.784;2023-06-10T17:12:49;8.60;;;5.65;;
73893;SDS011;62699;50.534;12.784;2023-06-10T17:17:51;10.88;;;5.72;;
73893;SDS011;62699;50.534;12.784;2023-06-10T17:22:53;8.10;;;4.88;;
73893;SDS011;62699;50.534;12.784;2023-06-10T17:27:54;6.45;;;4.38;;
73893;SDS011;62699;50.534;12.784;2023-06-10T17:32:54;6.25;;;3.75;;
73893;SDS011;62699;50.534;12.784;2023-06-10T17:37:54;7.75;;;4.30;;
73893;SDS011;62699;50.534;12.784;2023-06-10T17:42:55;6.60;;;4.22;;
73893;SDS011;62699;50.534;12.784;2023-06-10T17:47:58;6.93;;;4.10;;
73893;SDS011;62699;50.534;12.784;2023-06-10T17:52:59;6.43;;;3.83;;
73893;SDS011;62699;50.534;12.784;2023-06-10T17:58:00;7.93;;;4.80;;
73893;SDS011;62699;50.534;12.784;2023-06-10T18:03:01;7.03;;;4.35;;
73893;SDS011;62699;50.534;12.784;2023-06-10T18:08:02;7.68;;;5.30;;
73893;SDS011;62699;50.534;12.784;2023-06-10T18:13:03;6.95;;;4.53;;
73893;SDS011;62699;50.534;12.784;2023-06-10T18:18:04;7.70;;;4.30;;
73893;SDS011;62699;50.534;12.784;2023-06-10T18:23:04;7.13;;;4.75;;
73893;SDS011;62699;50.534;12.784;2023-06-10T18:28:05;7.97;;;5.00;;
73893;SDS011;62699;50.534;12.784;2023-06-10T18:33:06;8.02;;;5.20;;
73893;SDS011;62699;50.534;12.784;2023-06-10T18:38:07;7.15;;;4.93;;
73893;SDS011;62699;50.534;12.784;2023-06-10T18:43:07;8.57;;;5.57;;
73893;SDS011;62699;50.534;12.784;2023-06-10T18:48:08;8.70;;;5.53;;
73893;SDS011;62699;50.534;12.784;2023-06-10T18:53:09;8.20;;;5.43;;
73893;SDS011;62699;50.534;12.784;2023-06-10T18:58:11;10.93;;;6.05;;
73893;SDS011;62699;50.534;12.784;2023-06-10T19:03:11;9.20;;;6.15;;
73893;SDS011;62699;50.534;12.784;2023-06-10T19:08:11;9.40;;;5.73;;
73893;SDS011;62699;50.534;12.784;2023-06-10T19:13:11;9.80;;;6.45;;
73893;SDS011;62699;50.534;12.784;2023-06-10T19:18:12;10.07;;;6.47;;
73893;SDS011;62699;50.534;12.784;2023-06-10T19:23:12;8.07;;;6.30;;
73893;SDS011;62699;50.534;12.784;2023-06-10T19:28:12;10.63;;;7.57;;
73893;SDS011;62699;50.534;12.784;2023-06-10T19:33:12;11.60;;;7.63;;
73893;SDS011;62699;50.534;12.784;2023-06-10T19:38:14;10.48;;;7.05;;
73893;SDS011;62699;50.534;12.784;2023-06-10T19:43:15;10.70;;;6.85;;
73893;SDS011;62699;50.534;12.784;2023-06-10T19:48:17;10.80;;;7.50;;
73893;SDS011;62699;50.534;12.784;2023-06-10T19:53:17;16.52;;;11.30;;
73893;SDS011;62699;50.534;12.784;2023-06-10T19:58:20;15.02;;;12.02;;
73893;SDS011;62699;50.534;12.784;2023-06-10T20:03:20;18.52;;;14.32;;
73893;SDS011;62699;50.534;12.784;2023-06-10T20:08:20;23.83;;;14.88;;
73893;SDS011;62699;50.534;12.784;2023-06-10T20:13:21;17.45;;;12.30;;
73893;SDS011;62699;50.534;12.784;2023-06-10T20:18:21;15.25;;;11.48;;
73893;SDS011;62699;50.534;12.784;2023-06-10T20:23:22;15.57;;;11.60;;
73893;SDS011;62699;50.534;12.784;2023-06-10T20:28:22;14.65;;;11.10;;
73893;SDS011;62699;50.534;12.784;2023-06-10T20:33:22;14.18;;;10.32;;
73893;SDS011;62699;50.534;12.784;2023-06-10T20:38:23;15.55;;;9.43;;
73893;SDS011;62699;50.534;12.784;2023-06-10T20:43:24;12.35;;;9.35;;
73893;SDS011;62699;50.534;12.784;2023-06-10T20:48:24;14.68;;;8.93;;
73893;SDS011;62699;50.534;12.784;2023-06-10T20:53:26;14.00;;;9.18;;
73893;SDS011;62699;50.534;12.784;2023-06-10T20:58:26;13.38;;;9.50;;
73893;SDS011;62699;50.534;12.784;2023-06-10T21:03:28;12.85;;;9.07;;
73893;SDS011;62699;50.534;12.784;2023-06-10T21:08:28;13.05;;;9.15;;
73893;SDS011;62699;50.534;12.784;2023-06-10T21:13:28;12.70;;;9.25;;
73893;SDS011;62699;50.534;12.784;2023-06-10T21:18:32;12.45;;;9.23;;
73893;SDS011;62699;50.534;12.784;2023-06-10T21:23:32;12.82;;;8.98;;
73893;SDS011;62699;50.534;12.784;2023-06-10T21:28:33;11.73;;;8.60;;
73893;SDS011;62699;50.534;12.784;2023-06-10T21:33:33;12.75;;;8.73;;
73893;SDS011;62699;50.534;12.784;2023-06-10T21:38:34;13.32;;;8.65;;
73893;SDS011;62699;50.534;12.784;2023-06-10T21:43:34;16.10;;;9.97;;
73893;SDS011;62699;50.534;12.784;2023-06-10T21:48:35;14.25;;;10.52;;
73893;SDS011;62699;50.534;12.784;2023-06-10T21:53:36;12.88;;;10.23;;
73893;SDS011;62699;50.534;12.784;2023-06-10T21:58:37;13.02;;;9.73;;
73893;SDS011;62699;50.534;12.784;2023-06-10T22:03:37;12.00;;;8.77;;
73893;SDS011;62699;50.534;12.784;2023-06-10T22:08:39;12.63;;;8.57;;
73893;SDS011;62699;50.534;12.784;2023-06-10T22:13:40;11.88;;;8.88;;
73893;SDS011;62699;50.534;12.784;2023-06-10T22:18:40;11.65;;;8.23;;
73893;SDS011;62699;50.534;12.784;2023-06-10T22:23:40;13.57;;;9.20;;
73893;SDS011;62699;50.534;12.784;2023-06-10T22:28:41;13.82;;;9.13;;
73893;SDS011;62699;50.534;12.784;2023-06-10T22:33:41;12.70;;;9.23;;
73893;SDS011;62699;50.534;12.784;2023-06-10T22:38:41;13.55;;;10.00;;
73893;SDS011;62699;50.534;12.784;2023-06-10T22:43:41;15.27;;;9.00;;
73893;SDS011;62699;50.534;12.784;2023-06-10T22:48:42;12.02;;;9.05;;
73893;SDS011;62699;50.534;12.784;2023-06-10T22:53:43;13.15;;;9.52;;
73893;SDS011;62699;50.534;12.784;2023-06-10T22:58:45;13.50;;;9.32;;
73893;SDS011;62699;50.534;12.784;2023-06-10T23:03:45;13.38;;;9.82;;
73893;SDS011;62699;50.534;12.784;2023-06-10T23:08:49;13.95;;;9.05;;
73893;SDS011;62699;50.534;12.784;2023-06-10T23:13:49;12.52;;;9.23;;
73893;SDS011;62699;50.534;12.784;2023-06-10T23:18:50;12.77;;;8.88;;
73893;SDS011;62699;50.534;12.784;2023-06-10T23:23:52;11.75;;;8.65;;
73893;SDS011;62699;50.534;12.784;2023-06-10T23:28:54;13.63;;;9.02;;
73893;SDS011;62699;50.534;12.784;2023-06-10T23:33:56;14.70;;;9.43;;
73893;SDS011;62699;50.534;12.784;2023-06-10T23:39:01;12.40;;;8.85;;
73893;SDS011;62699;50.534;12.784;2023-06-10T23:44:04;13.93;;;9.75;;
73893;SDS011;62699;50.534;12.784;2023-06-10T23:49:07;12.32;;;8.85;;
73893;SDS011;62699;50.534;12.784;2023-06-10T23:54:10;11.93;;;8.80;;
73893;SDS011;62699;50.534;12.784;2023-06-10T23:59:13;12.27;;;8.93;;
